»·PEaware :: UAL1180 KSAN-KSFO

UAL1180 :: KSAN-KSFO

FLIGHT INFORMATION

Flight Status: Arrived
Operator:
United Airlines
More flights by this operator :: More flights under this callsign
Pilot: Anonymous 10181 (10181)
Aircraft: BOEING 727-100
(B721)
More flights by this aircraft type
Origin: KSAN San Diego Intl-Lindbergh
United States
Destination: KSFO San Francisco Intl
United States
More flights between these airports :: More routes between these airports
Route: PEBLE6 SXC VTU RZS J501 BSR BSR3
File this flight plan on PilotEdge
Remarks: Happy Wednesday!
Altitude:
(Current/Filed)
30,000ft
Speed:
(Current/Filed)
440kts
Departed: 15-Apr-20 03:40 PM
Arrived: 15-Apr-20 04:46 PM
Distance/Time
Traveled:
388nm/1:06
Distance/Time
To Go:
Arrived

Flight Plot

Page will automatically refresh every two minutes.


Map Options




Map Legend


Flown Route
Filed Route
Departure Airport
Arrival Airport
Navaid (VOR, NDB)
Fix

Horizontal Profiles

Position Reports

Time Latitude Longitude Heading Altitude Ground
Speed
15-Apr-20 15:09 32.733375 -117.199108 116 24ft 0kts
15-Apr-20 15:10 32.733375 -117.199108 116 24ft 0kts
15-Apr-20 15:11 32.733375 -117.199108 116 24ft 0kts
15-Apr-20 15:12 32.733375 -117.199108 116 24ft 0kts
15-Apr-20 15:13 32.733375 -117.199108 116 24ft 0kts
15-Apr-20 15:14 32.733375 -117.199108 116 24ft 0kts
15-Apr-20 15:15 32.733375 -117.199108 116 24ft 0kts
15-Apr-20 15:16 32.733375 -117.199108 116 24ft 0kts
15-Apr-20 15:17 32.733375 -117.199108 116 24ft 0kts
15-Apr-20 15:18 32.733375 -117.199108 116 24ft 0kts
15-Apr-20 15:19 32.733375 -117.199108 116 24ft 0kts
15-Apr-20 15:20 32.733375 -117.199108 116 24ft 0kts
15-Apr-20 15:21 32.733375 -117.199108 116 24ft 0kts
15-Apr-20 15:22 32.733375 -117.199108 116 24ft 0kts
15-Apr-20 15:23 32.733375 -117.199108 116 24ft 0kts
15-Apr-20 15:24 32.733439 -117.199263 116 24ft 2kts
15-Apr-20 15:25 32.733337 -117.199828 26 23ft 2kts
15-Apr-20 15:26 32.733205 -117.199874 11 23ft 0kts
15-Apr-20 15:27 32.733205 -117.199874 11 23ft 0kts
15-Apr-20 15:28 32.733205 -117.199874 11 23ft 0kts
15-Apr-20 15:29 32.733205 -117.199874 11 23ft 0kts
15-Apr-20 15:30 32.733206 -117.199874 11 23ft 0kts
15-Apr-20 15:31 32.734208 -117.199619 15 23ft 0kts
15-Apr-20 15:32 32.734208 -117.199619 15 23ft 0kts
15-Apr-20 15:33 32.734208 -117.199619 15 23ft 0kts
15-Apr-20 15:34 32.734605 -117.198308 105 24ft 15kts
15-Apr-20 15:35 32.733148 -117.192239 106 25ft 21kts
15-Apr-20 15:36 32.731352 -117.184864 107 25ft 24kts
15-Apr-20 15:37 32.730093 -117.179600 105 26ft 17kts
15-Apr-20 15:38 32.729996 -117.175291 354 27ft 3kts
15-Apr-20 15:39 32.732169 -117.183993 286 26ft 122kts
15-Apr-20 15:40 32.745407 -117.232862 292 1501ft 179kts
15-Apr-20 15:41 32.772985 -117.284829 302 4028ft 205kts
15-Apr-20 15:42 32.809116 -117.349075 316 6797ft 251kts
15-Apr-20 15:43 32.869733 -117.400090 328 9878ft 275kts
15-Apr-20 15:44 32.936064 -117.461845 312 11627ft 338kts
15-Apr-20 15:45 32.989568 -117.553046 304 14470ft 350kts
15-Apr-20 15:46 33.048659 -117.643118 309 17328ft 349kts
15-Apr-20 15:47 33.104568 -117.724263 309 19027ft 366kts
15-Apr-20 15:48 33.167268 -117.814659 309 21004ft 372kts
15-Apr-20 15:49 33.217748 -117.922436 288 22623ft 381kts
15-Apr-20 15:50 33.249063 -118.044716 287 24147ft 390kts
15-Apr-20 15:51 33.281183 -118.170219 287 25508ft 397kts
15-Apr-20 15:52 33.314205 -118.297532 289 26729ft 404kts
15-Apr-20 15:53 33.358210 -118.421978 293 27845ft 410kts
15-Apr-20 15:54 33.404651 -118.547958 295 28848ft 415kts
15-Apr-20 15:55 33.496973 -118.630550 331 29600ft 426kts
15-Apr-20 15:56 33.603654 -118.693991 331 30135ft 438kts
15-Apr-20 15:57 33.716141 -118.760731 331 30095ft 461kts
15-Apr-20 15:58 33.833259 -118.830554 331 30077ft 477kts
15-Apr-20 15:59 33.952729 -118.902430 329 30079ft 482kts
15-Apr-20 16:01 34.059457 -119.000130 320 30085ft 484kts
15-Apr-20 16:02 34.165923 -119.100222 321 30080ft 487kts
15-Apr-20 16:03 34.270460 -119.204333 307 30073ft 485kts
15-Apr-20 16:04 34.332988 -119.348362 295 30077ft 486kts
15-Apr-20 16:05 34.390071 -119.497008 295 30084ft 487kts
15-Apr-20 16:06 34.443790 -119.647253 293 30086ft 488kts
15-Apr-20 16:07 34.496810 -119.799521 293 30084ft 489kts
15-Apr-20 16:08 34.557077 -119.946550 314 30069ft 488kts
15-Apr-20 16:09 34.675096 -120.028177 332 30067ft 490kts
15-Apr-20 16:10 34.797183 -120.101979 330 30069ft 491kts
15-Apr-20 16:11 34.905645 -120.201008 319 30092ft 489kts
15-Apr-20 16:12 35.010379 -120.306854 319 30095ft 490kts
15-Apr-20 16:13 35.111291 -120.418689 314 30092ft 489kts
15-Apr-20 16:14 35.208533 -120.536160 314 30085ft 490kts
15-Apr-20 16:15 35.305613 -120.653425 314 30086ft 491kts
15-Apr-20 16:16 35.402682 -120.770611 314 30085ft 492kts
15-Apr-20 16:16 35.484029 -120.868686 314 30085ft 492kts
15-Apr-20 16:18 35.598344 -121.006239 314 30085ft 493kts
15-Apr-20 16:19 35.696317 -121.123833 314 30085ft 493kts
15-Apr-20 16:19 35.780808 -121.218493 320 30085ft 494kts
15-Apr-20 16:20 35.889025 -121.323040 320 30088ft 494kts
15-Apr-20 16:22 36.014688 -121.444777 321 30142ft 484kts
15-Apr-20 16:22 36.098947 -121.526552 321 28997ft 440kts
15-Apr-20 16:23 36.185505 -121.609350 311 26423ft 421kts
15-Apr-20 16:24 36.274657 -121.698602 324 23929ft 407kts
15-Apr-20 16:26 36.383126 -121.786001 324 21376ft 391kts
15-Apr-20 16:26 36.455953 -121.850399 320 20145ft 372kts
15-Apr-20 16:27 36.534791 -121.920738 336 20069ft 327kts
15-Apr-20 16:28 36.624395 -121.946490 345 17579ft 352kts
15-Apr-20 16:29 36.714627 -121.969434 345 16495ft 319kts
15-Apr-20 16:30 36.800095 -121.991482 345 14797ft 309kts
15-Apr-20 16:31 36.883342 -122.013865 345 13079ft 303kts
15-Apr-20 16:32 36.964500 -122.036576 345 11431ft 296kts
15-Apr-20 16:33 37.044435 -122.059911 345 9882ft 296kts
15-Apr-20 16:34 37.111078 -122.079873 345 10049ft 305kts
15-Apr-20 16:35 37.195275 -122.104822 345 10022ft 303kts
15-Apr-20 16:36 37.273509 -122.127877 345 8869ft 284kts
15-Apr-20 16:37 37.349750 -122.150510 345 7385ft 275kts
15-Apr-20 16:38 37.425527 -122.158932 356 4549ft 278kts
15-Apr-20 16:39 37.497943 -122.162601 356 4011ft 223kts
15-Apr-20 16:40 37.537459 -122.186894 318 3075ft 147kts
15-Apr-20 16:41 37.558382 -122.228127 297 1974ft 149kts
15-Apr-20 16:42 37.575966 -122.273267 298 1344ft 128kts
15-Apr-20 16:43 37.591637 -122.310089 295 745ft 112kts
15-Apr-20 16:44 37.606207 -122.345172 297 345ft 115kts
15-Apr-20 16:45 37.618200 -122.373838 297 24ft 29kts
15-Apr-20 16:46 37.618992 -122.380281 284 34ft 7kts
15-Apr-20 16:47 37.619104 -122.383258 290 35ft 7kts
15-Apr-20 16:48 37.619177 -122.383511 290 36ft 0kts

Navigation Log

Ident Type
Flight plan parsing failed, navigation log unavailable